Time;durP1;ratioP1;P1;durP2;ratioP2;P2;SDS_P1;SDS_P2;PMS_P1;PMS_P2;Temp;Humidity;BMP_temperature;BMP_pressure;BME280_temperature;BME280_humidity;BME280_pressure;Samples;Min_cycle;Max_cycle;Signal;HPM_P1;HPM_P2
2021/07/23 00:00:31;;;;;;;16.40;11.00;;;15.60;99.90;;;;;;5065794;28;20275;-67
2021/07/23 00:03:01;;;;;;;17.20;11.10;;;15.60;99.90;;;;;;5066275;28;20191;-67
2021/07/23 00:05:30;;;;;;;17.40;11.00;;;15.60;99.90;;;;;;5062602;28;20273;-67
2021/07/23 00:07:58;;;;;;;13.47;10.60;;;15.50;99.90;;;;;;5065705;28;20204;-66
2021/07/23 00:10:27;;;;;;;19.83;10.43;;;15.50;99.90;;;;;;5064333;28;20655;-66
2021/07/23 00:12:55;;;;;;;15.33;10.80;;;15.40;99.90;;;;;;5064257;28;20271;-66
2021/07/23 00:15:23;;;;;;;18.63;10.80;;;15.40;99.90;;;;;;5061615;28;20292;-66
2021/07/23 00:17:51;;;;;;;17.40;10.90;;;15.30;99.90;;;;;;5063432;28;20244;-66
2021/07/23 00:20:21;;;;;;;13.27;9.80;;;15.30;99.90;;;;;;5066321;28;20228;-66
2021/07/23 00:22:49;;;;;;;16.33;10.53;;;15.20;99.90;;;;;;5065570;28;20188;-66
2021/07/23 00:25:18;;;;;;;15.67;10.10;;;15.20;99.90;;;;;;5062781;28;20228;-66
2021/07/23 00:27:47;;;;;;;16.13;10.23;;;15.20;99.90;;;;;;5063998;28;20184;-66
2021/07/23 00:30:16;;;;;;;14.47;10.50;;;15.20;99.90;;;;;;5063649;28;20298;-66
2021/07/23 00:32:44;;;;;;;17.50;10.20;;;15.20;99.90;;;;;;5064297;28;20762;-66
2021/07/23 00:35:12;;;;;;;17.63;10.13;;;15.10;99.90;;;;;;5065836;28;20251;-66
2021/07/23 00:37:42;;;;;;;17.20;9.77;;;15.10;99.90;;;;;;5065334;28;20204;-66
2021/07/23 00:40:11;;;;;;;14.47;9.53;;;15.00;99.90;;;;;;5063991;28;20608;-66
2021/07/23 00:42:42;;;;;;;12.53;8.93;;;15.00;99.90;;;;;;5068647;28;20231;-67
2021/07/23 00:45:12;;;;;;;9.83;8.20;;;15.00;99.90;;;;;;5070369;28;20197;-66
2021/07/23 00:47:42;;;;;;;14.93;8.47;;;15.10;99.90;;;;;;5065583;28;20185;-66
2021/07/23 00:50:11;;;;;;;12.27;8.27;;;15.10;99.90;;;;;;5068673;28;20567;-66
2021/07/23 00:52:40;;;;;;;8.83;7.40;;;15.10;99.90;;;;;;5062065;28;20299;-66
2021/07/23 00:55:12;;;;;;;9.43;7.43;;;15.00;99.90;;;;;;5069647;28;20208;-66
2021/07/23 00:57:42;;;;;;;9.93;8.10;;;15.10;99.90;;;;;;5067351;28;20215;-66
2021/07/23 01:00:12;;;;;;;8.93;7.63;;;15.00;99.90;;;;;;5069851;28;20196;-66
2021/07/23 01:02:41;;;;;;;9.00;7.37;;;15.00;99.90;;;;;;5067517;28;20312;-66
2021/07/23 01:05:11;;;;;;;9.60;7.90;;;15.00;99.90;;;;;;5068764;28;20190;-66
2021/07/23 01:07:39;;;;;;;7.90;6.73;;;15.00;99.90;;;;;;5065646;28;20278;-66
2021/07/23 01:10:09;;;;;;;8.77;7.37;;;14.90;99.90;;;;;;5066950;28;20287;-66
2021/07/23 01:12:41;;;;;;;9.30;7.43;;;14.80;99.90;;;;;;5064571;28;20273;-66
2021/07/23 01:15:11;;;;;;;9.50;7.90;;;14.80;99.90;;;;;;5059168;28;20192;-66
2021/07/23 01:17:41;;;;;;;12.20;7.83;;;14.70;99.90;;;;;;5068124;28;20516;-66
2021/07/23 01:20:16;;;;;;;11.63;7.53;;;14.70;99.90;;;;;;5063974;28;20196;-66
2021/07/23 01:22:45;;;;;;;11.17;7.47;;;14.80;99.90;;;;;;5065262;28;20616;-66
2021/07/23 01:25:16;;;;;;;11.83;7.07;;;14.70;99.90;;;;;;5064560;28;20193;-67
2021/07/23 01:27:50;;;;;;;9.00;7.40;;;14.70;99.90;;;;;;5066923;28;20276;-66
2021/07/23 01:30:21;;;;;;;7.80;6.63;;;14.70;99.90;;;;;;5064587;28;20564;-66
2021/07/23 01:32:49;;;;;;;8.50;7.00;;;14.60;99.90;;;;;;5064208;28;20192;-66
2021/07/23 01:35:17;;;;;;;9.03;7.13;;;14.60;99.90;;;;;;5065127;28;20255;-66
2021/07/23 01:37:47;;;;;;;10.77;7.47;;;14.60;99.90;;;;;;5068540;28;20208;-66
2021/07/23 01:40:17;;;;;;;8.97;7.03;;;14.60;99.90;;;;;;5069511;28;20226;-66
2021/07/23 01:42:47;;;;;;;11.70;7.10;;;14.50;99.90;;;;;;5066173;28;20196;-66
2021/07/23 01:45:17;;;;;;;10.20;6.87;;;14.50;99.90;;;;;;5068815;28;20234;-66
2021/07/23 01:47:46;;;;;;;9.83;7.40;;;14.50;99.90;;;;;;5065739;28;20193;-66
2021/07/23 01:50:14;;;;;;;10.27;6.57;;;14.50;99.90;;;;;;5070166;28;20192;-66
2021/07/23 01:52:42;;;;;;;9.03;7.23;;;14.40;99.90;;;;;;5068148;28;20184;-66
2021/07/23 01:55:12;;;;;;;10.00;6.90;;;14.30;99.90;;;;;;5066947;28;20195;-66
2021/07/23 01:57:41;;;;;;;8.87;6.87;;;14.30;99.90;;;;;;5069374;28;20275;-66
2021/07/23 02:00:11;;;;;;;8.10;6.70;;;14.20;99.90;;;;;;5065775;28;20346;-66
2021/07/23 02:02:40;;;;;;;10.23;6.60;;;14.10;99.90;;;;;;5068164;28;20196;-66
2021/07/23 02:05:09;;;;;;;10.57;6.97;;;14.10;99.90;;;;;;5068625;28;20195;-66
2021/07/23 02:07:38;;;;;;;8.73;6.90;;;14.00;99.90;;;;;;5067418;28;20247;-66
2021/07/23 02:10:07;;;;;;;7.60;6.70;;;13.90;99.90;;;;;;5066571;28;20290;-66
2021/07/23 02:12:36;;;;;;;10.80;7.17;;;13.90;99.90;;;;;;5067861;28;20223;-66
2021/07/23 02:15:09;;;;;;;7.97;6.73;;;13.80;99.90;;;;;;5067210;28;20204;-66
2021/07/23 02:17:38;;;;;;;7.80;7.00;;;13.80;99.90;;;;;;5068241;28;20665;-66
2021/07/23 02:20:07;;;;;;;8.70;6.80;;;13.80;99.90;;;;;;5065598;28;20627;-66
2021/07/23 02:22:37;;;;;;;8.07;6.67;;;13.70;99.90;;;;;;5062098;28;20192;-66
2021/07/23 02:25:06;;;;;;;8.83;6.73;;;13.70;99.90;;;;;;5065687;28;20246;-66
2021/07/23 02:27:35;;;;;;;9.67;7.33;;;13.60;99.90;;;;;;5065871;28;20230;-66
2021/07/23 02:30:04;;;;;;;7.97;6.73;;;13.60;99.90;;;;;;5066855;28;20184;-66
2021/07/23 02:32:33;;;;;;;7.43;6.70;;;13.50;99.90;;;;;;5066781;28;20496;-66
2021/07/23 02:35:04;;;;;;;7.67;6.77;;;13.50;99.90;;;;;;5061913;28;20322;-66
2021/07/23 02:37:33;;;;;;;10.97;7.30;;;13.50;99.90;;;;;;5062674;28;20271;-68
2021/07/23 02:40:02;;;;;;;9.80;6.43;;;13.50;99.90;;;;;;5063792;28;20212;-68
2021/07/23 02:42:30;;;;;;;9.63;6.60;;;13.40;99.90;;;;;;5068482;28;20257;-69
2021/07/23 02:44:58;;;;;;;8.20;7.13;;;13.40;99.90;;;;;;5067457;28;20226;-69
2021/07/23 02:47:26;;;;;;;9.23;7.30;;;13.40;99.90;;;;;;5068693;28;20291;-68
2021/07/23 02:49:56;;;;;;;10.33;7.27;;;13.40;99.90;;;;;;5066224;28;20271;-68
2021/07/23 02:52:24;;;;;;;9.23;7.07;;;13.30;99.90;;;;;;5068221;28;20216;-68
2021/07/23 02:54:53;;;;;;;8.87;7.00;;;13.30;99.90;;;;;;5064646;28;20187;-68
2021/07/23 02:57:21;;;;;;;9.30;7.70;;;13.30;99.90;;;;;;5067782;28;20201;-68
2021/07/23 02:59:49;;;;;;;10.13;7.43;;;13.20;99.90;;;;;;5065535;28;20212;-68
2021/07/23 03:02:17;;;;;;;11.90;8.17;;;13.20;99.90;;;;;;5062778;28;20198;-68
2021/07/23 03:04:46;;;;;;;10.27;7.57;;;13.20;99.90;;;;;;5063218;28;20520;-66
2021/07/23 03:07:15;;;;;;;13.27;7.80;;;13.10;99.90;;;;;;5068789;28;20234;-68
2021/07/23 03:09:47;;;;;;;10.47;8.03;;;13.10;99.90;;;;;;5063588;28;20195;-68
2021/07/23 03:12:16;;;;;;;11.20;7.60;;;13.10;99.90;;;;;;5066540;28;20317;-68
2021/07/23 03:14:46;;;;;;;9.77;7.97;;;13.10;99.90;;;;;;5067036;28;20196;-69
2021/07/23 03:17:14;;;;;;;9.20;7.53;;;13.10;99.90;;;;;;5067289;28;20193;-68
2021/07/23 03:19:43;;;;;;;10.00;7.10;;;13.00;99.90;;;;;;5063231;28;20188;-69
2021/07/23 03:22:11;;;;;;;11.40;7.67;;;13.00;99.90;;;;;;5067033;28;20227;-69
2021/07/23 03:24:41;;;;;;;12.90;8.60;;;13.00;99.90;;;;;;5066085;28;20214;-68
2021/07/23 03:27:09;;;;;;;13.53;8.53;;;13.00;99.90;;;;;;5065876;28;20192;-68
2021/07/23 03:29:37;;;;;;;11.97;8.10;;;13.00;99.90;;;;;;5066258;28;20634;-68
2021/07/23 03:32:06;;;;;;;11.27;7.67;;;13.00;99.90;;;;;;5065981;28;20282;-68
2021/07/23 03:34:35;;;;;;;8.97;7.50;;;12.90;99.90;;;;;;5064137;28;20223;-68
2021/07/23 03:37:03;;;;;;;11.00;7.40;;;12.90;99.90;;;;;;5066766;28;20227;-68
2021/07/23 03:39:32;;;;;;;13.60;8.37;;;12.90;99.90;;;;;;5066496;28;20279;-67
2021/07/23 03:42:01;;;;;;;8.23;7.40;;;12.90;99.90;;;;;;5068096;28;20200;-68
2021/07/23 03:44:30;;;;;;;12.27;8.67;;;12.90;99.90;;;;;;5063346;28;20215;-68
2021/07/23 03:46:59;;;;;;;12.93;8.60;;;12.80;99.90;;;;;;5060681;28;20573;-68
2021/07/23 03:49:28;;;;;;;12.53;8.67;;;12.80;99.90;;;;;;5065422;28;20303;-68
2021/07/23 03:51:58;;;;;;;9.40;7.67;;;12.80;99.90;;;;;;5066652;28;20630;-68
2021/07/23 03:54:26;;;;;;;10.53;7.97;;;12.80;99.90;;;;;;5065749;28;20227;-68
2021/07/23 03:56:55;;;;;;;9.77;7.70;;;12.80;99.90;;;;;;5066942;28;20655;-68
2021/07/23 03:59:24;;;;;;;11.00;8.13;;;12.80;99.90;;;;;;5066386;28;20199;-68
2021/07/23 04:01:52;;;;;;;16.13;9.00;;;12.80;99.90;;;;;;5066947;28;20192;-68
2021/07/23 04:04:21;;;;;;;14.17;8.53;;;12.80;99.90;;;;;;5065441;28;20271;-68
2021/07/23 04:06:55;;;;;;;10.17;8.23;;;12.80;99.90;;;;;;5065949;28;20184;-68
2021/07/23 04:09:24;;;;;;;11.10;8.83;;;12.80;99.90;;;;;;5064024;28;20204;-67
2021/07/23 04:11:53;;;;;;;11.83;8.17;;;12.90;99.90;;;;;;5067251;28;20211;-68
2021/07/23 04:15:10;;;;;;;13.80;9.10;;;12.80;99.90;;;;;;5063368;28;20297;-68
2021/07/23 04:17:38;;;;;;;14.30;8.60;;;12.90;99.90;;;;;;5067941;28;20241;-68
2021/07/23 04:20:08;;;;;;;14.03;9.40;;;12.80;99.90;;;;;;5068644;28;20233;-68
2021/07/23 04:22:36;;;;;;;14.57;9.33;;;12.90;99.90;;;;;;5064513;28;20194;-68
2021/07/23 04:25:06;;;;;;;20.50;10.70;;;12.90;99.90;;;;;;5069937;28;20211;-68
2021/07/23 04:27:34;;;;;;;12.97;10.20;;;13.00;99.90;;;;;;5062345;28;20224;-68
2021/07/23 04:30:03;;;;;;;15.77;10.43;;;13.00;99.90;;;;;;5067520;28;20199;-67
2021/07/23 04:32:33;;;;;;;17.93;10.10;;;13.10;99.90;;;;;;5068961;28;20593;-68
2021/07/23 04:35:01;;;;;;;15.77;9.80;;;13.20;99.90;;;;;;5070175;28;20780;-68
2021/07/23 04:37:30;;;;;;;16.03;9.90;;;13.20;99.90;;;;;;5070230;28;20279;-69
2021/07/23 04:39:58;;;;;;;18.03;10.40;;;13.20;99.90;;;;;;5067877;28;20192;-67
2021/07/23 04:42:26;;;;;;;16.13;10.40;;;13.30;99.90;;;;;;5069250;28;20540;-68
2021/07/23 04:44:56;;;;;;;17.17;10.43;;;13.30;99.90;;;;;;5069456;28;20192;-68
2021/07/23 04:47:25;;;;;;;15.90;9.80;;;13.40;99.90;;;;;;5069809;28;20200;-68
2021/07/23 04:49:54;;;;;;;14.93;9.90;;;13.40;99.90;;;;;;5066510;28;20585;-68
2021/07/23 04:52:23;;;;;;;15.57;10.17;;;13.50;99.90;;;;;;5068319;28;20286;-68
2021/07/23 04:54:51;;;;;;;14.20;9.73;;;13.50;99.90;;;;;;5064669;28;20192;-68
2021/07/23 04:57:26;;;;;;;15.07;9.97;;;13.50;99.90;;;;;;5069139;28;20559;-68
2021/07/23 04:59:54;;;;;;;12.87;9.53;;;13.60;99.90;;;;;;5065701;28;20187;-68
2021/07/23 05:02:23;;;;;;;15.40;10.10;;;13.60;99.90;;;;;;5066289;28;20188;-68
2021/07/23 05:04:52;;;;;;;14.03;10.13;;;13.70;99.90;;;;;;5067443;28;20196;-69
2021/07/23 05:07:21;;;;;;;14.93;10.47;;;13.80;99.90;;;;;;5069297;28;20192;-68
2021/07/23 05:09:50;;;;;;;15.17;10.77;;;13.90;99.90;;;;;;5070121;28;20208;-68
2021/07/23 05:12:20;;;;;;;17.80;10.50;;;14.00;99.90;;;;;;5067514;28;20184;-69
2021/07/23 05:14:49;;;;;;;20.80;11.07;;;14.20;99.90;;;;;;5068531;28;20307;-68
2021/07/23 05:17:17;;;;;;;15.83;10.70;;;14.30;99.90;;;;;;5069606;28;20279;-68
2021/07/23 05:19:46;;;;;;;13.57;10.17;;;14.50;99.90;;;;;;5049368;28;20196;-67
2021/07/23 05:22:14;;;;;;;14.77;10.23;;;14.60;99.90;;;;;;5067095;28;20192;-68
2021/07/23 05:24:44;;;;;;;17.80;11.47;;;14.80;99.90;;;;;;5068720;28;20666;-69
2021/07/23 05:27:13;;;;;;;15.73;10.50;;;14.90;99.90;;;;;;5068037;28;20200;-68
2021/07/23 05:29:42;;;;;;;18.30;10.93;;;14.90;99.90;;;;;;5055916;28;20196;-68
2021/07/23 05:32:10;;;;;;;15.20;10.27;;;15.10;99.90;;;;;;5061950;28;20609;-69
2021/07/23 05:34:38;;;;;;;16.17;10.70;;;15.20;99.90;;;;;;5062057;28;20260;-68
2021/07/23 05:37:07;;;;;;;21.13;10.80;;;15.20;99.90;;;;;;5067662;28;20652;-68
2021/07/23 05:39:35;;;;;;;17.60;10.83;;;15.40;99.90;;;;;;5068216;28;20686;-68
2021/07/23 05:42:05;;;;;;;16.37;10.60;;;15.50;99.90;;;;;;5065899;28;20192;-69
2021/07/23 05:44:33;;;;;;;16.30;10.50;;;15.70;99.90;;;;;;5049804;28;20273;-67
2021/07/23 05:47:02;;;;;;;16.13;10.90;;;15.80;99.90;;;;;;5066534;28;20204;-68
2021/07/23 05:49:30;;;;;;;15.90;10.60;;;15.90;99.90;;;;;;5065600;28;20219;-68
2021/07/23 05:51:59;;;;;;;17.80;11.10;;;15.90;99.90;;;;;;5066347;28;20278;-67
2021/07/23 05:54:27;;;;;;;15.10;11.20;;;16.10;99.90;;;;;;5065330;28;20481;-68
2021/07/23 05:56:55;;;;;;;16.83;11.10;;;16.20;99.90;;;;;;5069382;28;20551;-68
2021/07/23 05:59:25;;;;;;;17.43;10.57;;;16.20;99.90;;;;;;5061473;28;20275;-69
2021/07/23 06:01:53;;;;;;;15.97;10.63;;;16.40;99.90;;;;;;5066612;28;20267;-68
2021/07/23 06:04:21;;;;;;;22.77;11.13;;;16.50;99.90;;;;;;5067153;28;20444;-68
2021/07/23 06:06:50;;;;;;;13.20;10.50;;;16.60;99.90;;;;;;5066277;28;20189;-68
2021/07/23 06:09:18;;;;;;;15.90;10.93;;;16.80;99.90;;;;;;5066908;28;20266;-68
2021/07/23 06:11:46;;;;;;;15.00;10.77;;;16.80;99.90;;;;;;5066395;28;20204;-68
2021/07/23 06:14:15;;;;;;;14.10;10.37;;;16.90;99.90;;;;;;5061499;28;20200;-68
2021/07/23 06:16:45;;;;;;;17.30;10.77;;;17.00;99.90;;;;;;5058840;28;20741;-68
2021/07/23 06:19:13;;;;;;;15.93;10.33;;;17.20;99.90;;;;;;5063301;28;20231;-67
2021/07/23 06:21:41;;;;;;;13.90;10.97;;;17.40;99.90;;;;;;5065085;28;20222;-68
2021/07/23 06:24:09;;;;;;;15.43;10.40;;;17.60;99.90;;;;;;5048257;28;20291;-68
2021/07/23 06:26:38;;;;;;;17.03;11.07;;;17.70;99.90;;;;;;5066755;28;20288;-68
2021/07/23 06:29:06;;;;;;;15.20;10.70;;;17.80;99.90;;;;;;5064809;28;20220;-68
2021/07/23 06:31:35;;;;;;;14.10;10.57;;;17.90;99.90;;;;;;5066574;28;20208;-68
2021/07/23 06:34:05;;;;;;;15.87;10.53;;;18.10;99.90;;;;;;5062814;28;20200;-68
2021/07/23 06:36:35;;;;;;;11.33;10.13;;;18.30;99.90;;;;;;5068480;28;20224;-67
2021/07/23 06:39:03;;;;;;;14.30;9.77;;;18.40;99.90;;;;;;5063036;28;20192;-68
2021/07/23 06:41:31;;;;;;;12.17;10.23;;;18.40;99.90;;;;;;5068521;28;20614;-68
2021/07/23 06:44:02;;;;;;;15.83;9.77;;;18.70;99.90;;;;;;5065450;28;20776;-68
2021/07/23 06:46:30;;;;;;;11.57;8.87;;;18.90;99.90;;;;;;5066560;28;20238;-68
2021/07/23 06:48:59;;;;;;;13.53;9.60;;;19.10;99.90;;;;;;5061518;28;20188;-67
2021/07/23 06:51:29;;;;;;;11.70;9.37;;;19.10;99.90;;;;;;5058528;28;20262;-68
2021/07/23 06:53:59;;;;;;;12.93;9.40;;;19.20;99.90;;;;;;5060303;28;20199;-68
2021/07/23 06:56:27;;;;;;;14.03;8.87;;;19.30;99.90;;;;;;5063754;28;20272;-68
2021/07/23 06:58:55;;;;;;;12.87;8.87;;;19.50;99.90;;;;;;5063936;28;20192;-68
2021/07/23 07:01:24;;;;;;;11.33;8.50;;;19.80;99.90;;;;;;5063461;28;20227;-68
2021/07/23 07:03:52;;;;;;;9.73;8.70;;;19.90;99.90;;;;;;5060835;28;20274;-68
2021/07/23 07:06:20;;;;;;;11.90;8.80;;;20.10;99.90;;;;;;5058427;28;20201;-68
2021/07/23 07:08:51;;;;;;;13.50;8.50;;;20.20;99.90;;;;;;5060421;28;20216;-68
2021/07/23 07:11:19;;;;;;;9.83;8.13;;;20.40;99.90;;;;;;5065702;28;20338;-68
2021/07/23 07:13:50;;;;;;;10.90;8.97;;;20.60;99.90;;;;;;5065458;28;20422;-68
2021/07/23 07:16:19;;;;;;;13.80;8.23;;;20.80;99.90;;;;;;5062927;28;20192;-68
2021/07/23 07:18:48;;;;;;;10.83;8.57;;;20.80;99.90;;;;;;5063617;28;20274;-68
2021/07/23 07:21:16;;;;;;;9.00;7.90;;;21.10;99.90;;;;;;5055470;28;20189;-68
2021/07/23 07:23:44;;;;;;;8.77;7.77;;;21.30;99.90;;;;;;5059100;28;20224;-69
2021/07/23 07:26:14;;;;;;;7.40;6.73;;;21.50;99.90;;;;;;5062527;28;20189;-68
2021/07/23 07:28:42;;;;;;;8.70;7.63;;;21.60;99.90;;;;;;5062704;28;20199;-68
2021/07/23 07:31:15;;;;;;;8.43;7.20;;;22.00;99.90;;;;;;5064796;28;20246;-68
2021/07/23 07:33:44;;;;;;;8.27;7.50;;;22.30;99.90;;;;;;5061353;28;20307;-68
2021/07/23 07:36:17;;;;;;;8.10;6.73;;;22.40;99.90;;;;;;5063131;28;20721;-69
2021/07/23 07:38:45;;;;;;;7.40;6.77;;;22.70;99.90;;;;;;5058728;28;20222;-69
2021/07/23 07:41:18;;;;;;;8.17;7.40;;;23.00;99.90;;;;;;5061280;28;20274;-69
2021/07/23 07:43:46;;;;;;;8.23;7.17;;;23.00;99.90;;;;;;5063032;28;20188;-68
2021/07/23 07:46:15;;;;;;;6.73;6.13;;;23.40;99.90;;;;;;5061408;28;20288;-69
2021/07/23 07:48:43;;;;;;;6.40;5.93;;;23.70;99.90;;;;;;5060146;28;20192;-68
2021/07/23 07:51:12;;;;;;;7.40;6.03;;;24.10;99.90;;;;;;5059878;28;20307;-69
2021/07/23 07:53:42;;;;;;;6.90;6.22;;;24.50;99.90;;;;;;5060225;28;20200;-70
2021/07/23 07:56:12;;;;;;;7.03;6.45;;;24.40;99.90;;;;;;5062028;28;20267;-70
2021/07/23 07:58:42;;;;;;;6.93;6.22;;;24.30;99.90;;;;;;5056326;28;20194;-71
2021/07/23 08:01:14;;;;;;;6.68;6.07;;;24.40;99.90;;;;;;5059408;28;20708;-70
2021/07/23 08:03:43;;;;;;;6.88;6.28;;;24.70;99.90;;;;;;5059504;28;20195;-70
2021/07/23 08:06:19;;;;;;;8.15;6.40;;;25.00;99.90;;;;;;5062673;28;20219;-70
2021/07/23 08:08:49;;;;;;;11.50;6.50;;;25.30;99.90;;;;;;5066769;28;20192;-71
2021/07/23 08:11:18;;;;;;;7.47;6.32;;;25.60;99.90;;;;;;5065509;28;20220;-70
2021/07/23 08:13:47;;;;;;;6.32;5.70;;;26.20;99.90;;;;;;5063777;28;20199;-71
2021/07/23 08:16:16;;;;;;;9.32;6.57;;;26.80;99.90;;;;;;5062974;28;20202;-70
2021/07/23 08:18:44;;;;;;;6.82;6.20;;;26.60;99.90;;;;;;5065886;28;20685;-70
2021/07/23 08:21:13;;;;;;;10.73;6.30;;;26.20;99.90;;;;;;5065033;28;20219;-71
2021/07/23 08:23:41;;;;;;;6.32;5.93;;;26.60;99.90;;;;;;5053471;28;20239;-70
2021/07/23 08:26:09;;;;;;;6.15;5.65;;;27.00;99.90;;;;;;5063637;28;20206;-71
2021/07/23 08:28:38;;;;;;;6.05;5.53;;;27.40;99.90;;;;;;5073486;28;21109;-71
2021/07/23 08:31:07;;;;;;;6.50;6.00;;;27.40;99.90;;;;;;5065429;28;20659;-71
2021/07/23 08:33:36;;;;;;;6.85;6.28;;;27.00;99.90;;;;;;5062999;28;20664;-70
2021/07/23 08:36:05;;;;;;;6.80;6.13;;;27.40;99.90;;;;;;5063856;28;20595;-70
2021/07/23 08:38:33;;;;;;;6.72;5.47;;;27.50;99.90;;;;;;5064121;28;20198;-64
2021/07/23 08:41:03;;;;;;;8.68;6.10;;;27.80;99.90;;;;;;5063861;28;20199;-69
2021/07/23 08:43:31;;;;;;;6.65;6.15;;;27.90;99.90;;;;;;5062990;28;20532;-70
2021/07/23 08:46:00;;;;;;;6.07;5.38;;;27.50;99.90;;;;;;5063313;28;20231;-69
2021/07/23 08:48:30;;;;;;;6.30;5.80;;;27.70;99.90;;;;;;5061838;28;20217;-69
2021/07/23 08:50:58;;;;;;;9.57;6.32;;;27.90;99.90;;;;;;5065474;28;20203;-69
2021/07/23 08:53:26;;;;;;;11.27;6.57;;;28.30;99.90;;;;;;5056132;28;20292;-69
2021/07/23 08:55:55;;;;;;;4.75;4.45;;;28.50;99.90;;;;;;5064451;28;20199;-69
2021/07/23 08:58:23;;;;;;;6.50;5.80;;;28.60;99.90;;;;;;5062994;28;20247;-68
2021/07/23 09:00:58;;;;;;;8.68;5.63;;;29.10;99.90;;;;;;5062951;28;20242;-68
2021/07/23 09:03:29;;;;;;;8.45;6.22;;;29.00;99.90;;;;;;5064164;28;20188;-69
2021/07/23 09:05:58;;;;;;;8.05;6.03;;;28.70;99.90;;;;;;5070435;28;20241;-71
2021/07/23 09:08:26;;;;;;;6.57;5.93;;;28.10;99.90;;;;;;5067816;28;20210;-70
2021/07/23 09:11:05;;;;;;;5.90;5.50;;;27.60;99.90;;;;;;5064479;28;20198;-70
2021/07/23 09:13:36;;;;;;;7.65;6.10;;;27.80;99.90;;;;;;5067716;28;20210;-71
2021/07/23 09:16:22;;;;;;;6.05;5.50;;;28.50;99.90;;;;;;5068949;28;20196;-70
2021/07/23 09:19:06;;;;;;;6.97;6.40;;;28.60;99.90;;;;;;5066053;28;20199;-71
2021/07/23 09:21:38;;;;;;;9.30;6.22;;;28.80;99.90;;;;;;5068744;28;20207;-71
2021/07/23 09:24:10;;;;;;;5.80;5.30;;;29.10;99.90;;;;;;5065401;28;20708;-71
2021/07/23 09:26:43;;;;;;;5.65;5.07;;;29.50;99.90;;;;;;5069549;28;20186;-68
2021/07/23 09:29:14;;;;;;;5.65;5.22;;;30.30;99.90;;;;;;5058240;28;21015;-69
2021/07/23 09:32:05;;;;;;;6.72;6.22;;;30.60;99.90;;;;;;5070655;28;20199;-69
2021/07/23 09:34:35;;;;;;;8.48;6.25;;;29.90;99.90;;;;;;5066382;28;20196;-68
2021/07/23 09:37:07;;;;;;;7.00;6.30;;;29.40;99.90;;;;;;5064579;28;20656;-68
2021/07/23 09:39:57;;;;;;;6.93;6.25;;;29.70;99.90;;;;;;5061276;28;20197;-69
2021/07/23 09:42:26;;;;;;;6.88;6.28;;;29.90;99.90;;;;;;5067144;28;20288;-68
2021/07/23 09:45:02;;;;;;;7.07;6.38;;;30.00;99.90;;;;;;5067521;28;20192;-67
2021/07/23 09:47:30;;;;;;;7.22;6.53;;;29.90;99.90;;;;;;5067880;28;20188;-68
2021/07/23 09:50:02;;;;;;;6.50;5.78;;;29.50;99.90;;;;;;5068668;28;20246;-69
2021/07/23 09:52:32;;;;;;;6.55;5.93;;;29.40;99.90;;;;;;5067688;28;20686;-68
2021/07/23 09:55:01;;;;;;;6.72;6.10;;;29.20;99.90;;;;;;5066804;28;20207;-70
2021/07/23 09:57:31;;;;;;;6.55;6.05;;;28.40;99.90;;;;;;5066884;28;20235;-71
2021/07/23 10:00:05;;;;;;;7.38;6.53;;;28.60;99.90;;;;;;5068706;28;20595;-69
2021/07/23 10:02:42;;;;;;;7.03;6.45;;;28.70;99.90;;;;;;5065205;28;20262;-70
2021/07/23 10:05:14;;;;;;;7.90;5.97;;;28.60;99.90;;;;;;5061600;28;20210;-69
2021/07/23 10:07:47;;;;;;;8.80;6.70;;;28.30;99.90;;;;;;5067121;28;20265;-70
2021/07/23 10:10:19;;;;;;;7.38;6.35;;;28.90;99.90;;;;;;5065310;28;20584;-70
2021/07/23 10:12:50;;;;;;;6.10;5.70;;;29.00;99.90;;;;;;5067947;28;20203;-70
2021/07/23 10:15:19;;;;;;;7.05;6.45;;;29.10;99.90;;;;;;5065485;28;20239;-70
2021/07/23 10:17:48;;;;;;;5.90;5.30;;;29.30;99.90;;;;;;5067229;28;20625;-70
2021/07/23 10:20:20;;;;;;;6.05;5.65;;;29.60;99.90;;;;;;5066907;28;20224;-70
2021/07/23 10:22:51;;;;;;;8.02;6.38;;;29.70;99.90;;;;;;5064471;28;20204;-69
2021/07/23 10:25:23;;;;;;;6.40;5.80;;;30.00;99.90;;;;;;5068899;28;20274;-70
2021/07/23 10:27:53;;;;;;;5.82;5.32;;;29.90;99.90;;;;;;5066472;28;20201;-69
2021/07/23 10:30:32;;;;;;;8.55;6.43;;;30.20;99.90;;;;;;5066321;28;20185;-70
2021/07/23 10:33:01;;;;;;;6.47;5.82;;;29.80;99.60;;;;;;5082767;28;20214;-70
2021/07/23 10:35:33;;;;;;;7.22;6.47;;;29.20;99.90;;;;;;5065194;28;20563;-70
2021/07/23 10:38:03;;;;;;;5.85;5.40;;;29.60;99.90;;;;;;5062366;28;20241;-70
2021/07/23 10:40:34;;;;;;;6.20;5.40;;;29.70;99.90;;;;;;5063364;28;20665;-70
2021/07/23 10:43:03;;;;;;;6.47;5.55;;;29.90;99.90;;;;;;5059795;28;20211;-70
2021/07/23 10:45:42;;;;;;;7.38;5.32;;;29.90;99.90;;;;;;5062526;28;20920;-70
2021/07/23 10:48:31;;;;;;;6.70;6.20;;;30.00;99.90;;;;;;5063664;28;20196;-70
2021/07/23 10:51:00;;;;;;;6.05;5.50;;;29.80;99.20;;;;;;5064054;28;20254;-69
2021/07/23 10:53:36;;;;;;;5.70;5.00;;;29.30;99.90;;;;;;5064901;28;20223;-70
2021/07/23 10:56:04;;;;;;;8.45;5.65;;;29.50;99.90;;;;;;5065087;28;20688;-69
2021/07/23 10:58:34;;;;;;;6.45;5.85;;;29.80;99.90;;;;;;5054500;28;20260;-69
2021/07/23 11:01:03;;;;;;;6.03;5.53;;;29.20;99.90;;;;;;5065810;28;20195;-69
2021/07/23 11:03:49;;;;;;;7.07;5.80;;;28.70;99.90;;;;;;5065482;28;20219;-69
2021/07/23 11:06:20;;;;;;;5.75;5.32;;;28.80;99.90;;;;;;5062238;28;20197;-70
2021/07/23 11:08:50;;;;;;;6.25;5.75;;;28.90;99.30;;;;;;5066403;28;20195;-69
2021/07/23 11:11:20;;;;;;;6.13;5.63;;;28.90;99.90;;;;;;5066579;28;20199;-70
2021/07/23 11:13:49;;;;;;;6.78;5.40;;;28.90;99.10;;;;;;5065899;28;20688;-69
2021/07/23 11:16:22;;;;;;;6.63;5.60;;;28.60;98.90;;;;;;5062043;28;20873;-69
2021/07/23 11:18:51;;;;;;;5.85;5.45;;;28.60;99.00;;;;;;5064615;28;20198;-69
2021/07/23 11:21:22;;;;;;;5.75;5.25;;;28.90;99.90;;;;;;5066311;28;20217;-69
2021/07/23 11:23:51;;;;;;;6.28;5.30;;;28.80;99.20;;;;;;5062714;28;20217;-69
2021/07/23 11:26:31;;;;;;;5.90;5.30;;;28.50;99.90;;;;;;5065418;28;20202;-69
2021/07/23 11:28:59;;;;;;;5.60;5.20;;;28.80;99.90;;;;;;5064986;28;20194;-69
2021/07/23 11:31:32;;;;;;;6.88;5.40;;;28.90;99.70;;;;;;5065155;28;20218;-68
2021/07/23 11:34:19;;;;;;;7.22;4.70;;;29.20;99.90;;;;;;5062678;28;20545;-68
2021/07/23 11:36:50;;;;;;;5.32;4.82;;;29.30;99.90;;;;;;5064105;28;20232;-69
2021/07/23 11:39:24;;;;;;;5.28;4.90;;;29.60;99.90;;;;;;5062018;28;20203;-69
2021/07/23 11:42:01;;;;;;;5.43;5.03;;;29.40;99.60;;;;;;5065587;28;20198;-68
2021/07/23 11:44:35;;;;;;;8.20;4.72;;;28.90;99.90;;;;;;5064503;28;20761;-68
2021/07/23 11:47:06;;;;;;;4.95;4.60;;;28.60;99.30;;;;;;5064089;28;20220;-68
2021/07/23 11:49:34;;;;;;;5.82;5.28;;;28.10;99.90;;;;;;5062722;28;20738;-68
2021/07/23 11:52:04;;;;;;;5.22;4.82;;;28.00;99.90;;;;;;5065371;28;20229;-68
2021/07/23 11:54:33;;;;;;;7.70;5.22;;;28.20;99.90;;;;;;5065970;28;20247;-68
2021/07/23 11:57:03;;;;;;;5.20;4.78;;;28.30;99.90;;;;;;5064927;28;20210;-67
2021/07/23 11:59:36;;;;;;;5.15;4.70;;;28.60;99.90;;;;;;5065772;28;20222;-69
2021/07/23 12:02:08;;;;;;;7.20;4.55;;;28.60;99.90;;;;;;5063350;28;20248;-68
2021/07/23 12:04:41;;;;;;;4.78;4.40;;;28.30;99.90;;;;;;5065857;28;20307;-68
2021/07/23 12:07:16;;;;;;;6.43;4.60;;;28.00;98.50;;;;;;5065510;28;20450;-68
2021/07/23 12:09:47;;;;;;;4.47;4.17;;;27.60;99.00;;;;;;5063530;28;20200;-68
2021/07/23 12:12:15;;;;;;;5.40;4.80;;;27.20;99.90;;;;;;5062398;28;20246;-68
2021/07/23 12:14:44;;;;;;;5.10;4.70;;;26.90;98.20;;;;;;5063412;28;20326;-68
2021/07/23 12:17:14;;;;;;;4.97;4.57;;;26.70;99.20;;;;;;5062498;28;20204;-68
2021/07/23 12:19:44;;;;;;;5.53;5.10;;;26.70;99.90;;;;;;5060549;28;20992;-67
2021/07/23 12:22:14;;;;;;;4.50;4.20;;;26.80;99.90;;;;;;5060006;28;20852;-68
2021/07/23 12:24:42;;;;;;;5.67;4.60;;;27.00;99.90;;;;;;5059283;28;20236;-68
2021/07/23 12:27:18;;;;;;;4.13;3.83;;;27.20;99.90;;;;;;5063496;28;20272;-67
2021/07/23 12:29:47;;;;;;;5.13;4.53;;;27.30;99.90;;;;;;5065684;28;20194;-68
2021/07/23 12:32:22;;;;;;;4.33;3.97;;;26.90;99.90;;;;;;5062159;28;20200;-68
2021/07/23 12:34:58;;;;;;;6.97;4.50;;;26.80;99.90;;;;;;5064541;28;20218;-67
2021/07/23 12:37:28;;;;;;;4.90;4.50;;;26.60;99.70;;;;;;5060700;28;20196;-67
2021/07/23 12:39:58;;;;;;;4.27;3.97;;;26.30;99.90;;;;;;5065035;28;20238;-67
2021/07/23 12:42:27;;;;;;;4.33;3.93;;;26.30;99.90;;;;;;5069437;28;20223;-67
2021/07/23 12:44:55;;;;;;;4.07;3.87;;;26.20;98.60;;;;;;5067772;28;20244;-67
2021/07/23 12:47:26;;;;;;;4.07;3.77;;;26.10;99.90;;;;;;5069597;28;20664;-67
2021/07/23 12:49:56;;;;;;;4.53;3.90;;;26.40;99.90;;;;;;5067005;28;20745;-67
2021/07/23 12:52:25;;;;;;;4.00;3.70;;;26.50;99.00;;;;;;5069692;28;20188;-67
2021/07/23 12:55:05;;;;;;;4.13;3.30;;;26.50;99.20;;;;;;5066602;28;20638;-67